createdAt,value
2023-01-20T00:02:24.787Z,20.08
2023-01-20T00:07:28.946Z,20.06
2023-01-20T00:12:32.609Z,20.07
2023-01-20T00:17:35.382Z,20.05
2023-01-20T00:22:42.345Z,20.03
2023-01-20T00:27:46.578Z,19.99
2023-01-20T00:32:49.466Z,19.97
2023-01-20T00:37:53.736Z,19.97
2023-01-20T00:42:56.762Z,19.94
2023-01-20T00:47:59.513Z,19.89
2023-01-20T00:53:03.661Z,19.88
2023-01-20T00:58:06.494Z,19.86
2023-01-20T01:03:10.277Z,19.83
2023-01-20T01:08:15.436Z,19.81
2023-01-20T01:13:18.310Z,19.76
2023-01-20T01:18:21.320Z,19.73
2023-01-20T01:23:25.692Z,19.72
2023-01-20T01:28:28.459Z,19.69
2023-01-20T01:33:31.715Z,19.66
2023-01-20T01:38:36.102Z,19.64
2023-01-20T01:43:39.413Z,19.62
2023-01-20T01:48:46.487Z,19.60
2023-01-20T01:53:55.940Z,19.58
2023-01-20T01:59:02.339Z,19.56
2023-01-20T02:04:12.472Z,19.55
2023-01-20T02:09:17.003Z,19.55
2023-01-20T02:14:23.370Z,19.52
2023-01-20T02:19:56.062Z,19.50
2023-01-20T02:25:25.350Z,19.48
2023-01-20T02:31:02.101Z,19.46
2023-01-20T02:36:10.421Z,19.48
2023-01-20T02:41:21.468Z,19.45
2023-01-20T02:46:32.043Z,19.47
2023-01-20T02:51:43.030Z,19.44
2023-01-20T02:56:48.005Z,19.44
2023-01-20T03:01:54.588Z,19.44
2023-01-20T03:07:01.601Z,19.41
2023-01-20T03:12:12.840Z,19.42
2023-01-20T03:17:15.944Z,19.41
2023-01-20T03:22:20.073Z,19.41
2023-01-20T03:27:22.814Z,19.40
2023-01-20T03:32:27.094Z,19.40
2023-01-20T03:37:31.355Z,19.40
2023-01-20T03:42:38.858Z,19.38
2023-01-20T03:47:51.422Z,19.36
2023-01-20T03:53:00.143Z,19.37
2023-01-20T03:58:07.442Z,19.35
2023-01-20T04:03:14.486Z,19.34
2023-01-20T04:08:23.806Z,19.33
2023-01-20T04:13:26.704Z,19.32
2023-01-20T04:18:30.164Z,19.31
2023-01-20T04:23:40.093Z,19.30
2023-01-20T04:28:42.945Z,19.31
2023-01-20T04:33:45.742Z,19.30
2023-01-20T04:38:49.930Z,19.29
2023-01-20T04:43:52.655Z,19.29
2023-01-20T04:48:55.413Z,19.29
2023-01-20T04:54:00.355Z,19.29
2023-01-20T04:59:03.199Z,19.28
2023-01-20T05:04:06.028Z,19.27
2023-01-20T05:09:11.853Z,19.25
2023-01-20T05:14:15.085Z,19.27
2023-01-20T05:19:18.108Z,19.25
2023-01-20T05:24:22.565Z,19.25
2023-01-20T05:29:25.353Z,19.23
2023-01-20T05:34:28.138Z,19.21
2023-01-20T05:39:32.232Z,19.23
2023-01-20T05:44:35.893Z,19.20
2023-01-20T05:49:38.714Z,19.20
2023-01-20T05:54:42.877Z,19.20
2023-01-20T05:59:47.521Z,19.18
2023-01-20T06:04:50.528Z,19.18
2023-01-20T06:09:54.746Z,19.18
2023-01-20T06:14:57.510Z,19.18
2023-01-20T06:20:00.527Z,19.17
2023-01-20T06:25:05.186Z,19.15
2023-01-20T06:30:09.473Z,19.16
2023-01-20T06:35:12.564Z,19.14
2023-01-20T06:40:17.706Z,19.13
2023-01-20T06:45:20.537Z,19.13
2023-01-20T06:50:23.339Z,19.13
2023-01-20T06:55:27.794Z,19.11
2023-01-20T07:00:30.756Z,19.12
2023-01-20T07:05:33.624Z,19.09
2023-01-20T07:10:38.583Z,19.10
2023-01-20T07:15:41.375Z,19.07
2023-01-20T07:20:44.264Z,19.06
2023-01-20T07:25:48.571Z,19.05
2023-01-20T07:30:51.370Z,19.03
2023-01-20T07:35:54.774Z,19.05
2023-01-20T07:41:00.595Z,19.05
2023-01-20T07:46:05.228Z,19.03
2023-01-20T07:51:09.735Z,19.05
2023-01-20T07:56:15.992Z,19.04
2023-01-20T08:01:21.408Z,19.05
2023-01-20T08:06:26.074Z,19.13
2023-01-20T08:11:32.048Z,17.67
2023-01-20T08:16:34.917Z,14.41
2023-01-20T08:21:37.842Z,13.80
2023-01-20T08:26:41.976Z,14.21
2023-01-20T08:31:44.928Z,16.42
2023-01-20T08:36:50.214Z,17.19
2023-01-20T08:41:54.507Z,17.68
2023-01-20T08:46:59.350Z,17.99
2023-01-20T08:52:02.288Z,18.24
2023-01-20T08:57:06.581Z,18.43
2023-01-20T09:02:10.568Z,18.60
2023-01-20T09:07:13.723Z,18.76
2023-01-20T09:12:17.981Z,18.89
2023-01-20T09:17:20.779Z,19.02
2023-01-20T09:22:23.530Z,19.14
2023-01-20T09:27:27.584Z,19.24
2023-01-20T09:32:30.394Z,19.34
2023-01-20T09:37:50.512Z,19.42
2023-01-20T09:43:23.216Z,19.47
2023-01-20T09:48:53.463Z,19.54
2023-01-20T09:54:04.259Z,19.60
2023-01-20T09:59:13.409Z,19.66
2023-01-20T10:04:21.854Z,19.74
2023-01-20T10:09:33.587Z,19.79
2023-01-20T10:14:41.584Z,19.85
2023-01-20T10:19:50.578Z,19.89
2023-01-20T10:25:01.159Z,19.96
2023-01-20T10:30:10.484Z,20.01
2023-01-20T10:35:20.032Z,20.06
2023-01-20T10:40:35.260Z,20.12
2023-01-20T10:45:55.509Z,20.18
2023-01-20T10:51:06.177Z,20.14
2023-01-20T10:56:27.887Z,20.12
2023-01-20T11:01:32.064Z,20.16
2023-01-20T11:06:35.101Z,20.25
2023-01-20T11:11:38.386Z,20.31
2023-01-20T11:16:46.682Z,20.30
2023-01-20T11:21:49.783Z,17.19
2023-01-20T11:26:52.901Z,18.41
2023-01-20T11:31:59.571Z,19.31
2023-01-20T11:37:18.980Z,19.60
2023-01-20T11:42:23.925Z,19.77
2023-01-20T11:47:30.137Z,19.93
2023-01-20T11:52:34.189Z,20.13
2023-01-20T11:57:38.420Z,20.21
2023-01-20T12:02:42.561Z,20.29
2023-01-20T12:07:48.291Z,20.36
2023-01-20T12:12:55.615Z,20.42
2023-01-20T12:18:03.136Z,20.46
2023-01-20T12:23:21.310Z,20.48
2023-01-20T12:28:28.183Z,20.50
2023-01-20T12:33:35.436Z,20.52
2023-01-20T12:38:49.031Z,20.53
2023-01-20T12:44:01.708Z,20.51
2023-01-20T12:49:27.086Z,20.57
2023-01-20T12:54:56.287Z,20.71
2023-01-20T13:00:14.081Z,20.82
2023-01-20T13:05:39.229Z,20.96
2023-01-20T13:10:57.619Z,21.04
2023-01-20T13:16:10.399Z,21.06
2023-01-20T13:21:19.094Z,21.19
2023-01-20T13:26:22.441Z,21.24
2023-01-20T13:31:43.130Z,21.29
2023-01-20T13:37:28.383Z,21.35
2023-01-20T13:42:49.435Z,21.43
2023-01-20T13:47:58.753Z,21.48
2023-01-20T13:53:28.136Z,21.54
2023-01-20T13:59:00.233Z,21.59
2023-01-20T14:04:05.163Z,21.60
2023-01-20T14:09:18.696Z,21.62
2023-01-20T14:14:23.826Z,21.65
2023-01-20T14:19:32.302Z,21.67
2023-01-20T14:24:38.153Z,21.81
2023-01-20T14:29:41.175Z,21.87
2023-01-20T14:34:44.652Z,21.79
2023-01-20T14:39:51.856Z,21.68
2023-01-20T14:44:57.079Z,21.74
2023-01-20T14:50:00.284Z,21.84
2023-01-20T14:55:04.685Z,21.84
2023-01-20T15:00:20.385Z,21.81
2023-01-20T15:05:29.759Z,21.78
2023-01-20T15:10:34.094Z,21.76
2023-01-20T15:15:37.128Z,21.82
2023-01-20T15:20:42.671Z,21.80
2023-01-20T15:25:48.012Z,21.82
2023-01-20T15:30:51.054Z,21.85
2023-01-20T15:35:56.315Z,21.83
2023-01-20T15:41:00.620Z,21.58
2023-01-20T15:46:03.378Z,21.80
2023-01-20T15:51:07.100Z,21.85
2023-01-20T15:56:17.280Z,21.91
2023-01-20T16:01:23.836Z,21.96
2023-01-20T16:06:30.893Z,22.00
2023-01-20T16:11:35.207Z,22.07
2023-01-20T16:16:37.990Z,22.17
2023-01-20T16:21:41.367Z,22.15
2023-01-20T16:26:48.143Z,22.30
2023-01-20T16:31:50.931Z,22.30
2023-01-20T16:36:53.830Z,22.13
2023-01-20T16:41:58.111Z,22.12
2023-01-20T16:47:00.959Z,22.33
2023-01-20T16:52:04.538Z,22.52
2023-01-20T16:57:10.135Z,22.68
2023-01-20T17:02:12.959Z,22.88
2023-01-20T17:07:15.809Z,22.94
2023-01-20T17:12:20.002Z,22.69
2023-01-20T17:17:23.589Z,22.47
2023-01-20T17:22:26.416Z,22.53
2023-01-20T17:27:30.561Z,22.56
2023-01-20T17:32:33.359Z,22.47
2023-01-20T17:37:36.117Z,22.74
2023-01-20T17:42:40.560Z,22.79
2023-01-20T17:47:43.369Z,22.77
2023-01-20T17:52:46.144Z,22.75
2023-01-20T17:57:52.457Z,22.30
2023-01-20T18:02:57.073Z,22.63
2023-01-20T18:07:59.935Z,22.61
2023-01-20T18:13:04.574Z,22.58
2023-01-20T18:18:07.722Z,22.50
2023-01-20T18:23:10.636Z,22.52
2023-01-20T18:28:14.879Z,22.46
2023-01-20T18:33:17.676Z,22.40
2023-01-20T18:38:20.454Z,22.34
2023-01-20T18:43:24.589Z,22.35
2023-01-20T18:48:27.400Z,22.31
2023-01-20T18:53:30.897Z,22.30
2023-01-20T18:58:36.411Z,22.27
2023-01-20T19:03:40.752Z,22.27
2023-01-20T19:08:45.976Z,22.25
2023-01-20T19:13:53.247Z,22.27
2023-01-20T19:18:57.803Z,22.27
2023-01-20T19:24:05.638Z,22.21
2023-01-20T19:29:17.293Z,22.23
2023-01-20T19:34:20.164Z,22.23
2023-01-20T19:39:23.295Z,22.15
2023-01-20T19:44:27.756Z,22.12
2023-01-20T19:49:30.825Z,22.18
2023-01-20T19:54:33.806Z,22.20
2023-01-20T19:59:40.761Z,22.14
2023-01-20T20:04:43.621Z,22.17
2023-01-20T20:09:46.498Z,22.20
2023-01-20T20:14:51.449Z,22.18
2023-01-20T20:19:54.278Z,22.11
2023-01-20T20:24:57.031Z,22.20
2023-01-20T20:30:01.334Z,22.21
2023-01-20T20:35:04.327Z,22.17
2023-01-20T20:40:08.583Z,22.13
2023-01-20T20:45:13.217Z,22.10
2023-01-20T20:55:19.277Z,22.15
2023-01-20T21:00:28.184Z,22.12
2023-01-20T21:05:31.441Z,22.10
2023-01-20T21:10:34.395Z,22.12
2023-01-20T21:15:38.832Z,22.10
2023-01-20T21:20:41.624Z,22.09
2023-01-20T21:25:44.441Z,22.02
2023-01-20T21:30:48.588Z,22.10
2023-01-20T21:35:51.509Z,22.06
2023-01-20T21:41:03.379Z,22.08
2023-01-20T21:46:07.716Z,22.06
2023-01-20T21:51:28.717Z,22.10
2023-01-20T21:56:31.609Z,22.05
2023-01-20T22:01:36.004Z,22.05
2023-01-20T22:06:38.738Z,21.99
2023-01-20T22:11:41.886Z,22.07
2023-01-20T22:16:46.004Z,22.05
2023-01-20T22:21:48.790Z,22.03
2023-01-20T22:26:51.656Z,22.05
2023-01-20T22:31:57.449Z,22.06
2023-01-20T22:37:00.662Z,22.04
2023-01-20T22:42:03.954Z,22.05
2023-01-20T22:47:10.083Z,22.02
2023-01-20T22:52:12.877Z,22.06
2023-01-20T22:57:15.972Z,22.06
2023-01-20T23:02:20.200Z,22.00
2023-01-20T23:07:23.233Z,22.07
2023-01-20T23:12:26.115Z,22.01
2023-01-20T23:17:31.904Z,22.03
2023-01-20T23:22:34.935Z,22.03
2023-01-20T23:27:37.748Z,22.02
2023-01-20T23:32:41.967Z,21.99
2023-01-20T23:37:44.705Z,22.01
2023-01-20T23:42:47.894Z,22.07
2023-01-20T23:47:52.954Z,21.94
2023-01-20T23:52:55.762Z,22.00
2023-01-20T23:57:58.554Z,22.00
